sensor_id;sensor_type;location;lat;lon;timestamp;pressure;altitude;pressure_sealevel;temperature;humidity
26915;BME280;14480;52.608;13.416;2023-04-01T06:34:20;142511.84;;;-6.04;100.00
26915;BME280;14480;52.608;13.416;2023-04-01T06:39:31;142518.06;;;-6.02;100.00
26915;BME280;14480;52.608;13.416;2023-04-01T06:44:43;142527.94;;;-5.98;100.00
26915;BME280;14480;52.608;13.416;2023-04-01T06:50:15;142539.06;;;-5.93;100.00
26915;BME280;14480;52.608;13.416;2023-04-01T06:55:41;142532.88;;;-5.96;100.00
26915;BME280;14480;52.608;13.416;2023-04-01T07:01:12;142516.78;;;-6.02;100.00
26915;BME280;14480;52.608;13.416;2023-04-01T07:06:23;142561.31;;;-5.84;100.00
26915;BME280;14480;52.608;13.416;2023-04-01T07:11:31;142552.66;;;-5.88;100.00
26915;BME280;14480;52.608;13.416;2023-04-01T07:17:14;142537.84;;;-5.94;100.00
26915;BME280;14480;52.608;13.416;2023-04-01T07:22:21;142578.66;;;-5.77;100.00
26915;BME280;14480;52.608;13.416;2023-04-01T07:27:48;142567.50;;;-5.81;100.00
26915;BME280;14480;52.608;13.416;2023-04-01T07:32:54;142458.63;;;-6.26;100.00
26915;BME280;14480;52.608;13.416;2023-04-01T07:38:14;142363.38;;;-6.65;100.00
26915;BME280;14480;52.608;13.416;2023-04-01T07:43:22;142325.06;;;-6.81;100.00
26915;BME280;14480;52.608;13.416;2023-04-01T07:48:46;142252.09;;;-7.11;100.00
26915;BME280;14480;52.608;13.416;2023-04-01T07:53:58;142228.59;;;-7.21;100.00
26915;BME280;14480;52.608;13.416;2023-04-01T07:59:06;142121.03;;;-7.65;100.00
26915;BME280;14480;52.608;13.416;2023-04-01T08:04:40;142139.59;;;-7.57;100.00
26915;BME280;14480;52.608;13.416;2023-04-01T08:09:51;142148.22;;;-7.54;100.00
26915;BME280;14480;52.608;13.416;2023-04-01T08:15:18;142113.66;;;-7.68;100.00
26915;BME280;14480;52.608;13.416;2023-04-01T08:20:37;142103.78;;;-7.72;100.00
26915;BME280;14480;52.608;13.416;2023-04-01T08:25:46;142101.31;;;-7.73;100.00
26915;BME280;14480;52.608;13.416;2023-04-01T08:30:56;142098.84;;;-7.74;100.00
26915;BME280;14480;52.608;13.416;2023-04-01T08:36:06;142090.16;;;-7.78;100.00
26915;BME280;14480;52.608;13.416;2023-04-01T08:41:21;142097.59;;;-7.75;100.00
26915;BME280;14480;52.608;13.416;2023-04-01T08:46:56;142075.34;;;-7.84;100.00
26915;BME280;14480;52.608;13.416;2023-04-01T08:52:16;142112.41;;;-7.69;100.00
26915;BME280;14480;52.608;13.416;2023-04-01T08:57:30;142112.41;;;-7.69;100.00
26915;BME280;14480;52.608;13.416;2023-04-01T09:08:27;142134.66;;;-7.59;100.00
26915;BME280;14480;52.608;13.416;2023-04-01T09:24:36;142144.53;;;-7.55;100.00
26915;BME280;14480;52.608;13.416;2023-04-01T09:29:49;142086.44;;;-7.79;100.00
26915;BME280;14480;52.608;13.416;2023-04-01T09:35:02;142072.88;;;-7.85;100.00
26915;BME280;14480;52.608;13.416;2023-04-01T09:40:17;141974.03;;;-8.26;100.00
26915;BME280;14480;52.608;13.416;2023-04-01T09:45:29;142142.06;;;-7.56;100.00
26915;BME280;14480;52.608;13.416;2023-04-01T09:50:39;142095.09;;;-7.76;100.00
26915;BME280;14480;52.608;13.416;2023-04-01T09:56:00;142043.25;;;-7.97;100.00
26915;BME280;14480;52.608;13.416;2023-04-01T10:01:21;142032.09;;;-8.02;100.00
26915;BME280;14480;52.608;13.416;2023-04-01T10:06:57;142035.78;;;-8.00;100.00
26915;BME280;14480;52.608;13.416;2023-04-01T10:12:22;142009.84;;;-8.11;100.00
26915;BME280;14480;52.608;13.416;2023-04-01T10:17:42;141987.66;;;-8.20;100.00
26915;BME280;14480;52.608;13.416;2023-04-01T10:22:59;142002.44;;;-8.14;100.00
26915;BME280;14480;52.608;13.416;2023-04-01T10:34:04;141959.25;;;-8.32;100.00
26915;BME280;14480;52.608;13.416;2023-04-01T10:39:32;141958.00;;;-8.32;100.00
26915;BME280;14480;52.608;13.416;2023-04-01T11:01:53;141871.63;;;-8.68;100.00
26915;BME280;14480;52.608;13.416;2023-04-01T11:07:44;141856.78;;;-8.74;100.00
26915;BME280;14480;52.608;13.416;2023-04-01T11:13:15;141853.09;;;-8.75;100.00
26915;BME280;14480;52.608;13.416;2023-04-01T11:24:10;141858.03;;;-8.73;100.00
26915;BME280;14480;52.608;13.416;2023-04-01T11:29:36;141895.03;;;-8.58;100.00
26915;BME280;14480;52.608;13.416;2023-04-01T11:40:35;141854.31;;;-8.75;100.00
26915;BME280;14480;52.608;13.416;2023-04-01T11:46:00;141843.22;;;-8.79;100.00
26915;BME280;14480;52.608;13.416;2023-04-01T11:56:34;141824.69;;;-8.87;100.00
26915;BME280;14480;52.608;13.416;2023-04-01T12:01:47;141859.25;;;-8.73;100.00
26915;BME280;14480;52.608;13.416;2023-04-01T12:06:54;141849.38;;;-8.77;100.00
26915;BME280;14480;52.608;13.416;2023-04-01T12:12:08;141802.47;;;-8.96;100.00
26915;BME280;14480;52.608;13.416;2023-04-01T12:17:18;141774.09;;;-9.08;100.00
26915;BME280;14480;52.608;13.416;2023-04-01T12:22:30;141776.56;;;-9.07;100.00
26915;BME280;14480;52.608;13.416;2023-04-01T12:27:43;141749.41;;;-9.18;100.00
26915;BME280;14480;52.608;13.416;2023-04-01T12:32:55;141748.16;;;-9.19;100.00
26915;BME280;14480;52.608;13.416;2023-04-01T12:38:08;141753.09;;;-9.17;100.00
26915;BME280;14480;52.608;13.416;2023-04-01T12:43:26;141746.94;;;-9.19;100.00
26915;BME280;14480;52.608;13.416;2023-04-01T12:48:41;141696.34;;;-9.40;100.00
26915;BME280;14480;52.608;13.416;2023-04-01T12:54:01;141727.19;;;-9.27;100.00
26915;BME280;14480;52.608;13.416;2023-04-01T13:04:35;141695.09;;;-9.41;100.00
26915;BME280;14480;52.608;13.416;2023-04-01T13:09:43;141700.03;;;-9.38;100.00
26915;BME280;14480;52.608;13.416;2023-04-01T13:15:05;141695.09;;;-9.41;100.00
26915;BME280;14480;52.608;13.416;2023-04-01T13:20:16;141688.94;;;-9.43;100.00
26915;BME280;14480;52.608;13.416;2023-04-01T13:25:24;141677.84;;;-9.48;100.00
26915;BME280;14480;52.608;13.416;2023-04-01T13:30:30;141644.50;;;-9.61;100.00
26915;BME280;14480;52.608;13.416;2023-04-01T13:35:41;141659.34;;;-9.55;100.00
26915;BME280;14480;52.608;13.416;2023-04-01T13:40:51;141613.69;;;-9.74;100.00
26915;BME280;14480;52.608;13.416;2023-04-01T13:46:11;141632.19;;;-9.66;100.00
26915;BME280;14480;52.608;13.416;2023-04-01T13:51:26;141598.91;;;-9.80;100.00
26915;BME280;14480;52.608;13.416;2023-04-01T13:56:34;141589.00;;;-9.84;100.00
26915;BME280;14480;52.608;13.416;2023-04-01T14:01:41;141606.28;;;-9.77;100.00
26915;BME280;14480;52.608;13.416;2023-04-01T14:06:57;141614.91;;;-9.74;100.00
26915;BME280;14480;52.608;13.416;2023-04-01T14:12:08;141606.28;;;-9.77;100.00
26915;BME280;14480;52.608;13.416;2023-04-01T14:17:17;141619.88;;;-9.72;100.00
26915;BME280;14480;52.608;13.416;2023-04-01T14:22:28;141616.13;;;-9.73;100.00
26915;BME280;14480;52.608;13.416;2023-04-01T14:27:41;141622.34;;;-9.71;100.00
26915;BME280;14480;52.608;13.416;2023-04-01T14:32:51;141585.31;;;-9.86;100.00
26915;BME280;14480;52.608;13.416;2023-04-01T14:38:06;141545.88;;;-10.02;100.00
26915;BME280;14480;52.608;13.416;2023-04-01T14:43:25;141556.94;;;-9.97;100.00
26915;BME280;14480;52.608;13.416;2023-04-01T14:48:32;141556.94;;;-9.97;100.00
26915;BME280;14480;52.608;13.416;2023-04-01T14:53:40;141490.44;;;-10.25;100.00
26915;BME280;14480;52.608;13.416;2023-04-01T14:58:49;141522.44;;;-10.12;100.00
26915;BME280;14480;52.608;13.416;2023-04-01T15:03:55;141489.22;;;-10.25;100.00
26915;BME280;14480;52.608;13.416;2023-04-01T15:09:05;141511.34;;;-10.16;100.00
26915;BME280;14480;52.608;13.416;2023-04-01T15:19:42;141489.22;;;-10.25;100.00
26915;BME280;14480;52.608;13.416;2023-04-01T15:24:56;141508.91;;;-10.17;100.00
26915;BME280;14480;52.608;13.416;2023-04-01T15:35:21;141518.75;;;-10.13;100.00
26915;BME280;14480;52.608;13.416;2023-04-01T15:40:36;141494.13;;;-10.23;100.00
26915;BME280;14480;52.608;13.416;2023-04-01T15:45:43;141523.66;;;-10.11;100.00
26915;BME280;14480;52.608;13.416;2023-04-01T15:50:54;141485.53;;;-10.27;100.00
26915;BME280;14480;52.608;13.416;2023-04-01T15:56:06;141443.59;;;-10.44;100.00
26915;BME280;14480;52.608;13.416;2023-04-01T16:01:20;141453.47;;;-10.40;100.00
26915;BME280;14480;52.608;13.416;2023-04-01T16:06:39;141439.88;;;-10.46;100.00
26915;BME280;14480;52.608;13.416;2023-04-01T16:11:49;141449.78;;;-10.42;100.00
26915;BME280;14480;52.608;13.416;2023-04-01T16:17:02;141441.13;;;-10.45;100.00
26915;BME280;14480;52.608;13.416;2023-04-01T16:22:08;141353.63;;;-10.81;100.00
26915;BME280;14480;52.608;13.416;2023-04-01T16:27:18;141375.81;;;-10.72;100.00
26915;BME280;14480;52.608;13.416;2023-04-01T16:32:31;141352.41;;;-10.82;100.00
26915;BME280;14480;52.608;13.416;2023-04-01T16:37:39;141320.38;;;-10.95;100.00
26915;BME280;14480;52.608;13.416;2023-04-01T16:42:48;141308.03;;;-11.00;100.00
26915;BME280;14480;52.608;13.416;2023-04-01T16:47:54;141305.56;;;-11.01;100.00
26915;BME280;14480;52.608;13.416;2023-04-01T16:53:00;141273.53;;;-11.14;100.00
26915;BME280;14480;52.608;13.416;2023-04-01T16:58:07;141246.44;;;-11.26;100.00
26915;BME280;14480;52.608;13.416;2023-04-01T17:03:16;141221.81;;;-11.36;100.00
26915;BME280;14480;52.608;13.416;2023-04-01T17:08:26;141231.69;;;-11.32;100.00
26915;BME280;14480;52.608;13.416;2023-04-01T17:13:43;141223.03;;;-11.35;100.00
26915;BME280;14480;52.608;13.416;2023-04-01T17:18:50;141220.59;;;-11.36;100.00
26915;BME280;14480;52.608;13.416;2023-04-01T17:24:00;141178.75;;;-11.54;100.00
26915;BME280;14480;52.608;13.416;2023-04-01T17:29:10;141165.16;;;-11.59;100.00
26915;BME280;14480;52.608;13.416;2023-04-01T17:39:45;141104.91;;;-11.84;100.00
26915;BME280;14480;52.608;13.416;2023-04-01T17:44:56;141086.47;;;-11.92;100.00
26915;BME280;14480;52.608;13.416;2023-04-01T17:50:14;141059.38;;;-12.03;100.00
26915;BME280;14480;52.608;13.416;2023-04-01T17:55:32;141063.06;;;-12.01;100.00
26915;BME280;14480;52.608;13.416;2023-04-01T18:00:52;141074.13;;;-11.97;100.00
26915;BME280;14480;52.608;13.416;2023-04-01T18:06:03;141043.38;;;-12.10;100.00
26915;BME280;14480;52.608;13.416;2023-04-01T18:11:12;141029.84;;;-12.15;100.00
26915;BME280;14480;52.608;13.416;2023-04-01T18:16:26;141019.97;;;-12.19;100.00
26915;BME280;14480;52.608;13.416;2023-04-01T18:21:35;141013.84;;;-12.22;100.00
26915;BME280;14480;52.608;13.416;2023-04-01T18:26:42;140978.16;;;-12.37;100.00
26915;BME280;14480;52.608;13.416;2023-04-01T18:31:49;140957.25;;;-12.45;100.00
26915;BME280;14480;52.608;13.416;2023-04-01T18:36:56;140969.53;;;-12.40;100.00
26915;BME280;14480;52.608;13.416;2023-04-01T18:42:03;140926.50;;;-12.58;100.00
26915;BME280;14480;52.608;13.416;2023-04-01T18:47:16;140901.88;;;-12.68;100.00
26915;BME280;14480;52.608;13.416;2023-04-01T18:52:26;140900.66;;;-12.69;100.00
26915;BME280;14480;52.608;13.416;2023-04-01T18:57:38;140874.84;;;-12.79;100.00
26915;BME280;14480;52.608;13.416;2023-04-01T19:02:47;140868.69;;;-12.82;100.00
26915;BME280;14480;52.608;13.416;2023-04-01T19:07:53;140874.84;;;-12.79;100.00
26915;BME280;14480;52.608;13.416;2023-04-01T19:13:03;140831.78;;;-12.97;100.00
26915;BME280;14480;52.608;13.416;2023-04-01T19:18:22;140820.72;;;-13.02;100.00
26915;BME280;14480;52.608;13.416;2023-04-01T19:28:54;140782.63;;;-13.17;100.00
26915;BME280;14480;52.608;13.416;2023-04-01T19:34:08;140769.13;;;-13.23;100.00
26915;BME280;14480;52.608;13.416;2023-04-01T19:39:22;140769.13;;;-13.23;100.00
26915;BME280;14480;52.608;13.416;2023-04-01T19:44:31;140749.44;;;-13.31;100.00
26915;BME280;14480;52.608;13.416;2023-04-01T19:49:45;140745.75;;;-13.33;100.00
26915;BME280;14480;52.608;13.416;2023-04-01T19:54:55;140735.94;;;-13.37;100.00
26915;BME280;14480;52.608;13.416;2023-04-01T20:00:02;140712.59;;;-13.46;100.00
26915;BME280;14480;52.608;13.416;2023-04-01T20:10:38;140708.91;;;-13.48;100.00
26915;BME280;14480;52.608;13.416;2023-04-01T20:15:46;140684.31;;;-13.58;100.00
26915;BME280;14480;52.608;13.416;2023-04-01T20:20:54;140689.22;;;-13.56;100.00
26915;BME280;14480;52.608;13.416;2023-04-01T20:26:01;140688.00;;;-13.57;100.00
26915;BME280;14480;52.608;13.416;2023-04-01T20:31:12;140690.47;;;-13.56;100.00
26915;BME280;14480;52.608;13.416;2023-04-01T20:36:26;140676.97;;;-13.61;100.00
26915;BME280;14480;52.608;13.416;2023-04-01T20:41:37;140651.16;;;-13.72;100.00
26915;BME280;14480;52.608;13.416;2023-04-01T20:46:47;140638.88;;;-13.77;100.00
26915;BME280;14480;52.608;13.416;2023-04-01T20:51:53;140630.25;;;-13.80;100.00
26915;BME280;14480;52.608;13.416;2023-04-01T20:57:02;140638.88;;;-13.77;100.00
26915;BME280;14480;52.608;13.416;2023-04-01T21:02:12;140641.34;;;-13.76;100.00
26915;BME280;14480;52.608;13.416;2023-04-01T21:07:20;140619.22;;;-13.85;100.00
26915;BME280;14480;52.608;13.416;2023-04-01T21:12:30;140636.38;;;-13.78;100.00
26915;BME280;14480;52.608;13.416;2023-04-01T21:17:41;140629.03;;;-13.81;100.00
26915;BME280;14480;52.608;13.416;2023-04-01T21:23:01;140621.66;;;-13.84;100.00
26915;BME280;14480;52.608;13.416;2023-04-01T21:28:18;140614.31;;;-13.87;100.00
